Time;durP1;ratioP1;P1;durP2;ratioP2;P2;SDS_P1;SDS_P2;PMS_P1;PMS_P2;Temp;Humidity;BMP_temperature;BMP_pressure;BME280_temperature;BME280_humidity;BME280_pressure;Samples;Min_cycle;Max_cycle;Signal;HPM_P1;HPM_P2
2023/08/26 00:00:20;;;;;;;7.7;6;;;;;;;20.68;98.65918;934.7869;;;;
2023/08/26 00:02:50;;;;;;;9.6;6.2;;;;;;;20.55;99.51855;934.7661;;;;
2023/08/26 00:05:21;;;;;;;7.6;6.2;;;;;;;20.51;100;934.6807;;;;
2023/08/26 00:07:53;;;;;;;7.7;6.1;;;;;;;20.48;100;934.6469;;;;
2023/08/26 00:10:18;;;;;;;6.5;5.9;;;;;;;20.61;99.98828;934.6376;;;;
2023/08/26 00:12:47;;;;;;;8.5;5.8;;;;;;;20.7;99.50684;934.655;;;;
2023/08/26 00:15:12;;;;;;;6.9;6.2;;;;;;;20.68;99.51172;934.6049;;;;
2023/08/26 00:17:37;;;;;;;7.4;6.1;;;;;;;20.73;98.88379;934.5916;;;;
2023/08/26 00:20:08;;;;;;;7.3;6.3;;;;;;;20.73;98.83496;934.5519;;;;
2023/08/26 00:22:31;;;;;;;7.7;6.3;;;;;;;20.71;98.86426;934.5383;;;;
2023/08/26 00:24:57;;;;;;;8.1;6.2;;;;;;;20.77;98.2959;934.464;;;;
2023/08/26 00:27:22;;;;;;;8.6;5.9;;;;;;;20.77;98.43555;934.5028;;;;
2023/08/26 00:29:53;;;;;;;7.2;6.5;;;;;;;20.49;99.93848;934.4314;;;;
2023/08/26 00:32:18;;;;;;;7.4;5.6;;;;;;;20.53;99.8418;934.3904;;;;
2023/08/26 00:34:45;;;;;;;7.7;5.4;;;;;;;20.51;99.62793;934.4373;;;;
2023/08/26 00:37:12;;;;;;;9.3;5.9;;;;;;;20.6;99.13379;934.46;;;;
2023/08/26 00:39:37;;;;;;;8.5;5.8;;;;;;;20.43;100;934.5145;;;;
2023/08/26 00:42:03;;;;;;;7.7;5.9;;;;;;;20.48;99.70117;934.5558;;;;
2023/08/26 00:44:32;;;;;;;7.6;5.8;;;;;;;20.53;99.11719;934.5909;;;;
2023/08/26 00:46:59;;;;;;;7.5;5.9;;;;;;;20.56;98.75;934.6169;;;;
2023/08/26 00:49:25;;;;;;;6.6;5.4;;;;;;;20.64;98.40723;934.5898;;;;
2023/08/26 00:51:53;;;;;;;8.1;5.4;;;;;;;20.76;97.34473;934.7;;;;
2023/08/26 00:54:19;;;;;;;7.4;5.9;;;;;;;20.73;96.85938;934.6053;;;;
2023/08/26 00:56:43;;;;;;;8.4;5.7;;;;;;;20.66;97.53516;934.4791;;;;
2023/08/26 00:59:08;;;;;;;10.2;5.7;;;;;;;20.72;96.69434;934.4861;;;;
2023/08/26 01:01:33;;;;;;;7.8;5.2;;;;;;;20.79;96.26758;934.5375;;;;
2023/08/26 01:04:01;;;;;;;8.7;6;;;;;;;20.87;96.1875;934.4705;;;;
2023/08/26 01:06:24;;;;;;;7.4;5.5;;;;;;;20.92;95.74609;934.4417;;;;
2023/08/26 01:08:58;;;;;;;6.7;5.5;;;;;;;20.89;95.81738;934.5183;;;;
2023/08/26 01:11:24;;;;;;;9.1;5.7;;;;;;;20.6;97.46289;934.7415;;;;
2023/08/26 01:13:52;;;;;;;7.4;5.5;;;;;;;20.56;98.37598;934.7302;;;;
2023/08/26 01:16:15;;;;;;;8.3;5.7;;;;;;;20.51;98.31934;934.7827;;;;
2023/08/26 01:18:40;;;;;;;8;5.6;;;;;;;20.55;98.60742;934.7731;;;;
2023/08/26 01:21:08;;;;;;;6.2;5.2;;;;;;;20.69;98.03223;934.5656;;;;
2023/08/26 01:23:33;;;;;;;6.8;5.3;;;;;;;20.67;97.03516;934.2231;;;;
2023/08/26 01:26:01;;;;;;;6;5.1;;;;;;;20.62;97.15137;934.2392;;;;
2023/08/26 01:28:27;;;;;;;7.8;5.8;;;;;;;20.33;99.02637;934.3167;;;;
2023/08/26 01:30:54;;;;;;;6.7;5.8;;;;;;;20.33;99.55371;934.3741;;;;
2023/08/26 01:33:19;;;;;;;7.4;6.2;;;;;;;20.13;100;934.4291;;;;
2023/08/26 01:35:44;;;;;;;6.8;5.6;;;;;;;20.13;99.84375;934.4891;;;;
2023/08/26 01:38:09;;;;;;;7.4;5.6;;;;;;;20.35;98.5752;934.4826;;;;
2023/08/26 01:40:37;;;;;;;6.9;5.4;;;;;;;20.58;96.25391;934.3856;;;;
2023/08/26 01:43:02;;;;;;;7.2;5.3;;;;;;;20.74;95.02832;934.4763;;;;
2023/08/26 01:45:29;;;;;;;6.7;5.2;;;;;;;20.93;94.09668;934.4706;;;;
2023/08/26 01:47:53;;;;;;;7.6;5.5;;;;;;;21.08;92.31641;934.382;;;;
2023/08/26 01:50:21;;;;;;;5.6;4.8;;;;;;;21.08;92.41016;934.3656;;;;
2023/08/26 01:52:46;;;;;;;6.4;5.7;;;;;;;21.2;91.70996;934.41;;;;
2023/08/26 01:55:14;;;;;;;6.9;5.5;;;;;;;21.26;91.66406;934.4722;;;;
2023/08/26 01:57:39;;;;;;;7.2;5;;;;;;;21.26;91.76953;934.5231;;;;
2023/08/26 02:00:11;;;;;;;7.3;5.2;;;;;;;21.23;92.30176;934.6188;;;;
2023/08/26 02:02:36;;;;;;;7;5;;;;;;;21.24;92.43066;934.6858;;;;
2023/08/26 02:05:01;;;;;;;5.8;5.1;;;;;;;21.24;92.44434;934.7863;;;;
2023/08/26 02:07:31;;;;;;;9.2;5.4;;;;;;;21.21;92.13477;934.9285;;;;
2023/08/26 02:10:04;;;;;;;8.2;5.3;;;;;;;20.99;92.64844;935.1817;;;;
2023/08/26 02:12:29;;;;;;;7.7;5.2;;;;;;;20.71;90.40527;935.3336;;;;
2023/08/26 02:14:56;;;;;;;5.3;4.7;;;;;;;20.45;92.22168;935.4551;;;;
2023/08/26 02:17:21;;;;;;;6.9;4.6;;;;;;;20.42;92.2959;935.2977;;;;
2023/08/26 02:19:46;;;;;;;5.4;4.5;;;;;;;20.62;88.56348;935.3057;;;;
2023/08/26 02:22:12;;;;;;;6.6;4.8;;;;;;;20.77;89.86816;935.3694;;;;
2023/08/26 02:24:37;;;;;;;6;4.9;;;;;;;20.68;92.22266;935.4358;;;;
2023/08/26 02:27:08;;;;;;;6.3;4.5;;;;;;;20.57;92.33789;935.389;;;;
2023/08/26 02:29:33;;;;;;;8.2;5.1;;;;;;;20.51;94.39453;935.6426;;;;
2023/08/26 02:32:03;;;;;;;6.8;5.3;;;;;;;20.55;95.39453;935.8922;;;;
2023/08/26 02:34:29;;;;;;;8.1;4.9;;;;;;;20.51;95.71387;936.0561;;;;
2023/08/26 02:37:01;;;;;;;6.8;5;;;;;;;20.49;94.99805;936.2346;;;;
2023/08/26 02:39:27;;;;;;;11;3.6;;;;;;;20.11;91.58984;936.7015;;;;
2023/08/26 02:41:57;;;;;;;5.2;2.9;;;;;;;19.81;91.41016;936.7508;;;;
2023/08/26 02:44:27;;;;;;;6.1;2.5;;;;;;;19.77;86.01465;936.4952;;;;
2023/08/26 02:46:52;;;;;;;6;2.9;;;;;;;19.9;90.12207;936.3478;;;;
2023/08/26 02:49:19;;;;;;;5.8;4.3;;;;;;;20;95.14941;936.3706;;;;
2023/08/26 02:51:44;;;;;;;7;5;;;;;;;20.04;96.96387;936.4627;;;;
2023/08/26 02:54:11;;;;;;;3.9;2.3;;;;;;;19.38;95.84277;936.5914;;;;
2023/08/26 02:56:36;;;;;;;3;2.2;;;;;;;19.02;97.0332;936.683;;;;
2023/08/26 02:59:04;;;;;;;4.7;2;;;;;;;18.98;96.88574;936.6467;;;;
2023/08/26 03:01:30;;;;;;;3.3;2;;;;;;;19.1;96.4209;936.7271;;;;
2023/08/26 03:03:54;;;;;;;3;2.6;;;;;;;19.26;96.33984;936.5068;;;;
2023/08/26 03:06:22;;;;;;;4.2;2.4;;;;;;;19.41;96.08203;936.2846;;;;
2023/08/26 03:08:47;;;;;;;6.2;2.7;;;;;;;19.37;98.98438;936.1777;;;;
2023/08/26 03:11:13;;;;;;;4.7;2.6;;;;;;;19.21;99.13477;936.2698;;;;
2023/08/26 03:13:37;;;;;;;2.8;2.4;;;;;;;19.14;98.8291;936.3731;;;;
2023/08/26 03:16:05;;;;;;;6.3;3.1;;;;;;;18.94;100;936.4725;;;;
2023/08/26 03:18:30;;;;;;;4.1;2.4;;;;;;;18.86;100;936.5812;;;;
2023/08/26 03:20:57;;;;;;;4.2;2.6;;;;;;;18.6;100;936.4085;;;;
2023/08/26 03:23:25;;;;;;;4.7;2.6;;;;;;;18.54;100;936.4728;;;;
2023/08/26 03:25:50;;;;;;;4.4;2.4;;;;;;;18.68;100;936.4958;;;;
2023/08/26 03:28:16;;;;;;;4.1;2.4;;;;;;;18.88;100;936.5483;;;;
2023/08/26 03:30:41;;;;;;;3.6;2.4;;;;;;;18.99;100;936.6439;;;;
2023/08/26 03:33:09;;;;;;;3;2.5;;;;;;;18.93;100;936.6415;;;;
2023/08/26 03:35:35;;;;;;;3.5;2.6;;;;;;;18.96;100;936.7286;;;;
2023/08/26 03:38:02;;;;;;;2.5;2.3;;;;;;;18.85;100;936.8452;;;;
2023/08/26 03:40:28;;;;;;;2.7;2.2;;;;;;;18.8;100;936.8395;;;;
2023/08/26 03:42:54;;;;;;;3;2;;;;;;;18.77;100;936.905;;;;
2023/08/26 03:45:19;;;;;;;3.8;2.4;;;;;;;18.86;100;936.8975;;;;
2023/08/26 03:47:48;;;;;;;4.1;2.5;;;;;;;18.83;100;936.89;;;;
2023/08/26 03:50:14;;;;;;;4.1;2.2;;;;;;;18.92;100;936.8653;;;;
2023/08/26 03:52:41;;;;;;;4.3;2.4;;;;;;;19.01;100;936.9493;;;;
2023/08/26 03:55:06;;;;;;;2.5;2.3;;;;;;;19.14;100;936.8622;;;;
2023/08/26 03:57:35;;;;;;;2.7;2.3;;;;;;;19.12;99.52344;936.7288;;;;
2023/08/26 04:00:03;;;;;;;3.9;2.5;;;;;;;19.1;99.10059;936.6357;;;;
2023/08/26 04:02:35;;;;;;;4.3;2.4;;;;;;;19.12;99.76855;936.5297;;;;
2023/08/26 04:05:04;;;;;;;4.1;2.6;;;;;;;19.12;100;936.3777;;;;
2023/08/26 04:07:29;;;;;;;4.7;2.4;;;;;;;19.02;100;936.1978;;;;
2023/08/26 04:09:54;;;;;;;5.7;2.8;;;;;;;18.95;100;935.889;;;;
2023/08/26 04:12:19;;;;;;;6.3;2.4;;;;;;;18.76;100;935.058;;;;
2023/08/26 04:14:44;;;;;;;4.1;2.5;;;;;;;18.84;100;934.7115;;;;
2023/08/26 04:17:12;;;;;;;3.5;2.3;;;;;;;18.71;100;934.8091;;;;
2023/08/26 04:19:37;;;;;;;3.8;2.3;;;;;;;18.57;100;935.0292;;;;
2023/08/26 04:22:07;;;;;;;3.4;2.4;;;;;;;18.37;100;935.1052;;;;
2023/08/26 04:24:31;;;;;;;2.4;2.2;;;;;;;18.42;100;935.1259;;;;
2023/08/26 04:26:55;;;;;;;3.1;2.5;;;;;;;18.33;100;935.1667;;;;
2023/08/26 04:29:24;;;;;;;3.8;2.3;;;;;;;18.34;100;935.3422;;;;
2023/08/26 04:31:49;;;;;;;4.8;2.3;;;;;;;18.36;100;935.34;;;;
2023/08/26 04:34:18;;;;;;;2.9;2.1;;;;;;;18.24;100;935.3325;;;;
2023/08/26 04:36:43;;;;;;;2.9;2;;;;;;;18.43;99.90137;935.3725;;;;
2023/08/26 04:39:10;;;;;;;2.9;2.4;;;;;;;18.59;99.75293;935.4135;;;;
2023/08/26 04:41:34;;;;;;;4.1;2.4;;;;;;;18.59;99.63672;935.5328;;;;
2023/08/26 04:44:04;;;;;;;3.8;2.2;;;;;;;18.44;100;935.6252;;;;
2023/08/26 04:46:29;;;;;;;3;2.4;;;;;;;18.33;100;935.5803;;;;
2023/08/26 04:48:57;;;;;;;4.4;2.6;;;;;;;18.19;100;935.556;;;;
2023/08/26 04:51:22;;;;;;;3.2;2.6;;;;;;;18.3;100;935.6769;;;;
2023/08/26 04:53:47;;;;;;;2.9;2.1;;;;;;;18.34;100;935.7195;;;;
2023/08/26 04:56:12;;;;;;;2.9;2.1;;;;;;;18.49;100;935.6426;;;;
2023/08/26 04:58:41;;;;;;;3.4;2.3;;;;;;;18.44;100;935.6552;;;;
2023/08/26 05:01:06;;;;;;;3;2.5;;;;;;;18.4;100;935.7051;;;;
2023/08/26 05:03:31;;;;;;;4.1;2.3;;;;;;;18.34;100;935.6291;;;;
2023/08/26 05:05:56;;;;;;;3.4;2.2;;;;;;;18.33;100;935.6802;;;;
2023/08/26 05:08:24;;;;;;;4.4;2.3;;;;;;;18.44;100;935.6736;;;;
2023/08/26 05:10:49;;;;;;;2.6;2.2;;;;;;;18.61;100;935.767;;;;
2023/08/26 05:13:16;;;;;;;2.8;2.5;;;;;;;18.73;100;935.8701;;;;
2023/08/26 05:15:41;;;;;;;3.3;2.3;;;;;;;18.74;100;935.9338;;;;
2023/08/26 05:18:07;;;;;;;2.9;2.3;;;;;;;18.66;99.91992;935.8075;;;;
2023/08/26 05:20:33;;;;;;;3.4;2.2;;;;;;;18.77;100;935.7926;;;;
2023/08/26 05:22:58;;;;;;;3.7;2.3;;;;;;;18.89;99.7041;935.8929;;;;
2023/08/26 05:25:26;;;;;;;3;2.1;;;;;;;18.83;100;935.8686;;;;
2023/08/26 05:27:52;;;;;;;2.8;2.1;;;;;;;18.79;100;935.8566;;;;
2023/08/26 05:30:20;;;;;;;3.6;2.6;;;;;;;18.96;99.78027;935.845;;;;
2023/08/26 05:32:52;;;;;;;3.3;2.6;;;;;;;19.06;98.9043;935.9171;;;;
2023/08/26 05:35:21;;;;;;;5.1;3;;;;;;;19.12;99.78027;936.0023;;;;
2023/08/26 05:37:52;;;;;;;4.6;2.5;;;;;;;19.09;100;936.0751;;;;
2023/08/26 05:40:17;;;;;;;5.4;2.2;;;;;;;19.05;100;936.077;;;;
2023/08/26 05:42:45;;;;;;;4;2.2;;;;;;;19.09;100;936.1284;;;;
2023/08/26 05:45:10;;;;;;;3.3;2.1;;;;;;;19.17;100;936.1666;;;;
2023/08/26 05:47:35;;;;;;;2.5;2;;;;;;;19.41;99.08594;936.1814;;;;
2023/08/26 05:50:01;;;;;;;2.9;2.4;;;;;;;19.41;97.8877;936.2636;;;;
2023/08/26 05:52:28;;;;;;;3;2;;;;;;;19.6;97.51074;936.2347;;;;
2023/08/26 05:54:53;;;;;;;2.8;2;;;;;;;19.88;94.3291;936.2974;;;;
2023/08/26 05:57:20;;;;;;;3.2;2.3;;;;;;;20.07;92.46582;936.2922;;;;
2023/08/26 05:59:45;;;;;;;4.3;2.4;;;;;;;20.16;92.14844;936.2377;;;;
2023/08/26 06:02:14;;;;;;;2.9;2.2;;;;;;;20.21;92.83691;936.2514;;;;
2023/08/26 06:04:39;;;;;;;2.8;2;;;;;;;20.23;93.45703;936.2286;;;;
2023/08/26 06:07:08;;;;;;;2.5;2.2;;;;;;;20.23;94.16895;936.2949;;;;
2023/08/26 06:09:33;;;;;;;3.1;2.2;;;;;;;20.15;95.32324;936.3308;;;;
2023/08/26 06:12:00;;;;;;;2.8;2.3;;;;;;;19.98;95.7627;936.3591;;;;
2023/08/26 06:14:25;;;;;;;2.7;2;;;;;;;19.74;96.3623;936.3845;;;;
2023/08/26 06:16:54;;;;;;;3.3;2.4;;;;;;;19.77;96.96484;936.3262;;;;
2023/08/26 06:19:23;;;;;;;2.7;2.4;;;;;;;19.75;95.81836;936.2831;;;;
2023/08/26 06:21:48;;;;;;;3.7;2.6;;;;;;;20;97.20313;936.3309;;;;
2023/08/26 06:24:16;;;;;;;2.5;2.1;;;;;;;20.28;94.53125;936.3628;;;;
2023/08/26 06:26:41;;;;;;;3.7;2.5;;;;;;;20.65;93.60547;936.3583;;;;
2023/08/26 06:29:09;;;;;;;3.4;2.2;;;;;;;20.84;90.92383;936.3304;;;;
2023/08/26 06:31:34;;;;;;;3.9;2.1;;;;;;;21.03;90.36426;936.3083;;;;
2023/08/26 06:34:00;;;;;;;2.6;2.1;;;;;;;21.24;89.44727;936.2985;;;;
2023/08/26 06:36:25;;;;;;;2.7;2.1;;;;;;;21.36;88.87598;936.2974;;;;
2023/08/26 06:38:52;;;;;;;3.1;2;;;;;;;21.4;89.2832;936.343;;;;
2023/08/26 06:41:23;;;;;;;2.3;2.1;;;;;;;21.67;87.62598;936.2456;;;;
2023/08/26 06:43:44;;;;;;;2.5;2.2;;;;;;;22.29;85.8623;936.2141;;;;
2023/08/26 06:46:14;;;;;;;2.3;2.1;;;;;;;23.31;80.38184;936.2017;;;;
2023/08/26 06:48:39;;;;;;;2.7;2.1;;;;;;;24.03;76.04785;936.2357;;;;
2023/08/26 06:51:07;;;;;;;2.9;2.1;;;;;;;23.96;74.42285;936.2427;;;;
2023/08/26 06:53:32;;;;;;;1.8;1.6;;;;;;;23.17;76.73633;936.2456;;;;
2023/08/26 06:56:02;;;;;;;4.7;2.2;;;;;;;22.97;79.31934;936.2936;;;;
2023/08/26 06:58:27;;;;;;;2.4;2;;;;;;;23.44;77.38281;936.2974;;;;
2023/08/26 07:00:56;;;;;;;2.8;1.8;;;;;;;23.01;77.48242;936.3352;;;;
2023/08/26 07:03:21;;;;;;;3.4;2;;;;;;;22.56;79.3877;936.2647;;;;
2023/08/26 07:05:51;;;;;;;2.2;2;;;;;;;22.31;81.00879;936.2144;;;;
2023/08/26 07:08:16;;;;;;;3;1.8;;;;;;;22.45;82.33691;936.1386;;;;
2023/08/26 07:10:41;;;;;;;2.2;2;;;;;;;22.33;80.47266;936.0435;;;;
2023/08/26 07:13:08;;;;;;;2.4;1.9;;;;;;;22.06;81.18652;935.9796;;;;
2023/08/26 07:15:33;;;;;;;3;2.2;;;;;;;22.25;80.42383;935.954;;;;
2023/08/26 07:18:01;;;;;;;2;1.8;;;;;;;22.64;80;936.0251;;;;
2023/08/26 07:20:26;;;;;;;2.3;1.9;;;;;;;23.58;75.58301;935.9711;;;;
2023/08/26 07:22:53;;;;;;;3.4;2.3;;;;;;;24.33;70.86816;935.9268;;;;
2023/08/26 07:25:19;;;;;;;2.2;1.9;;;;;;;25.27;68.21777;935.9166;;;;
2023/08/26 07:27:47;;;;;;;3.8;2;;;;;;;26.8;63.90234;935.7996;;;;
2023/08/26 07:30:13;;;;;;;2.5;1.7;;;;;;;27;59.87695;935.6685;;;;
2023/08/26 07:32:42;;;;;;;1.8;1.6;;;;;;;27.04;58.99414;935.6245;;;;
2023/08/26 07:35:12;;;;;;;2.5;2.1;;;;;;;27.49;57.35645;935.6727;;;;
2023/08/26 07:39:54;;;;;;;1.8;1.6;;;;;;;27.77;55.59961;935.6472;;;;
2023/08/26 07:42:19;;;;;;;3;1.8;;;;;;;28.9;53.07324;935.6919;;;;
2023/08/26 07:44:44;;;;;;;1.7;1.6;;;;;;;29.56;50.37305;935.6828;;;;
2023/08/26 07:47:09;;;;;;;2.4;1.7;;;;;;;28.22;53.08691;935.6895;;;;
2023/08/26 07:49:37;;;;;;;1.6;1.5;;;;;;;28.36;54.50879;935.6644;;;;
2023/08/26 07:52:02;;;;;;;2.4;1.6;;;;;;;29.04;52.70898;935.7509;;;;
2023/08/26 07:54:27;;;;;;;2.4;1.7;;;;;;;29.15;52.84082;935.7466;;;;
2023/08/26 07:56:55;;;;;;;2.1;1.8;;;;;;;29.78;52.48535;935.7849;;;;
2023/08/26 07:59:20;;;;;;;2;1.8;;;;;;;29.85;53.60254;935.8061;;;;
2023/08/26 08:01:45;;;;;;;1.8;1.7;;;;;;;30;51.00781;935.8317;;;;
2023/08/26 08:04:11;;;;;;;2.2;1.5;;;;;;;28.62;54.52734;935.8244;;;;
2023/08/26 08:06:36;;;;;;;1.6;1.5;;;;;;;27.59;57.25195;935.8053;;;;
2023/08/26 08:09:04;;;;;;;1.6;1.5;;;;;;;26.76;60.1543;935.8278;;;;
2023/08/26 08:11:29;;;;;;;2.4;1.6;;;;;;;26.65;61.08789;935.8444;;;;
2023/08/26 08:13:58;;;;;;;1.6;1.5;;;;;;;27.16;60.35059;935.7383;;;;
2023/08/26 08:16:23;;;;;;;3.2;1.8;;;;;;;27.74;57.81543;935.776;;;;
2023/08/26 08:18:51;;;;;;;2.5;2;;;;;;;27.12;58.51758;935.7891;;;;
2023/08/26 08:21:16;;;;;;;2.5;1.8;;;;;;;26.89;58.59473;935.743;;;;
2023/08/26 08:23:45;;;;;;;2.3;2.1;;;;;;;26.18;61.15332;935.7347;;;;
2023/08/26 08:26:08;;;;;;;1.9;1.8;;;;;;;26.24;61.37305;935.6758;;;;
2023/08/26 08:28:40;;;;;;;1.9;1.7;;;;;;;26.83;59.60645;935.6253;;;;
2023/08/26 08:31:02;;;;;;;1.9;1.6;;;;;;;27.72;60.08203;935.5648;;;;
2023/08/26 08:33:33;;;;;;;1.9;1.7;;;;;;;28.6;55.19141;935.6297;;;;
2023/08/26 08:35:56;;;;;;;1.6;1.5;;;;;;;28.34;54.33887;935.558;;;;
2023/08/26 08:38:26;;;;;;;1.6;1.5;;;;;;;29.08;54.39258;935.5974;;;;
2023/08/26 08:40:54;;;;;;;2.1;1.9;;;;;;;29.86;50.41992;935.568;;;;
2023/08/26 08:43:19;;;;;;;1.5;1.4;;;;;;;29.89;50.04102;935.575;;;;
2023/08/26 08:45:45;;;;;;;2.1;1.5;;;;;;;30.69;48.06152;935.5505;;;;
2023/08/26 08:48:11;;;;;;;2.4;1.5;;;;;;;30.76;46.94531;935.5367;;;;
2023/08/26 08:50:37;;;;;;;3.5;1.8;;;;;;;30.86;47.11133;935.4604;;;;
2023/08/26 08:53:03;;;;;;;2.6;1.4;;;;;;;31.53;47.58789;935.4188;;;;
2023/08/26 08:55:31;;;;;;;1.6;1.5;;;;;;;30.77;46.00293;935.4659;;;;
2023/08/26 08:57:56;;;;;;;1.8;1.7;;;;;;;29.97;47.35254;935.5486;;;;
2023/08/26 09:00:24;;;;;;;2.3;1.8;;;;;;;29.33;49.15625;935.5672;;;;
2023/08/26 09:02:50;;;;;;;1.9;1.7;;;;;;;29.06;51.11523;935.5325;;;;
2023/08/26 09:05:15;;;;;;;1.5;1.4;;;;;;;29.08;51.30859;935.4659;;;;
2023/08/26 09:07:45;;;;;;;1.6;1.5;;;;;;;29.14;52.48242;935.4395;;;;
2023/08/26 09:10:16;;;;;;;2.6;1.7;;;;;;;29.63;53.23047;935.4175;;;;
2023/08/26 09:12:41;;;;;;;2.1;1.8;;;;;;;29.38;53.53418;935.4048;;;;
2023/08/26 09:15:07;;;;;;;2.6;1.7;;;;;;;28.33;54.74121;935.361;;;;
2023/08/26 09:17:37;;;;;;;1.9;1.7;;;;;;;27.86;55.83496;935.2853;;;;
2023/08/26 09:20:12;;;;;;;2;1.8;;;;;;;27.43;58.17871;935.3447;;;;
2023/08/26 09:22:37;;;;;;;3.6;1.6;;;;;;;27.39;58.29297;935.2709;;;;
2023/08/26 09:25:05;;;;;;;2.6;1.8;;;;;;;26.8;61.08301;935.2355;;;;
2023/08/26 09:27:30;;;;;;;2;1.8;;;;;;;26.48;59.15723;935.1877;;;;
2023/08/26 09:29:56;;;;;;;3.4;2;;;;;;;26.31;60.83887;935.052;;;;
2023/08/26 09:32:21;;;;;;;2;1.8;;;;;;;26.33;62.92383;934.9858;;;;
2023/08/26 09:34:46;;;;;;;2.8;1.5;;;;;;;26.25;61.69434;934.9731;;;;
2023/08/26 09:37:11;;;;;;;2;1.8;;;;;;;26.03;62.55078;934.9858;;;;
2023/08/26 09:39:36;;;;;;;2.7;2;;;;;;;25.8;64.60059;934.9025;;;;
2023/08/26 09:42:02;;;;;;;1.9;1.7;;;;;;;25.62;66.53516;934.8301;;;;
2023/08/26 09:44:28;;;;;;;1.9;1.8;;;;;;;25.79;67.58984;934.6949;;;;
2023/08/26 09:46:53;;;;;;;2.7;1.7;;;;;;;26.06;67.1084;934.688;;;;
2023/08/26 09:49:22;;;;;;;1.9;1.8;;;;;;;26.45;65.68848;934.6404;;;;
2023/08/26 09:51:47;;;;;;;2.4;1.8;;;;;;;26.49;65.19629;934.5613;;;;
2023/08/26 09:54:12;;;;;;;4.6;1.9;;;;;;;26.49;65.6123;934.5472;;;;
2023/08/26 09:56:37;;;;;;;2.1;1.9;;;;;;;26.72;64.2002;934.4981;;;;
2023/08/26 09:59:04;;;;;;;2.7;2;;;;;;;27.02;64.83398;934.3856;;;;
2023/08/26 10:01:29;;;;;;;2.1;2;;;;;;;27.06;62.54102;934.3312;;;;
2023/08/26 10:03:54;;;;;;;3.1;2.2;;;;;;;27.41;62.02051;934.2452;;;;
2023/08/26 10:06:24;;;;;;;2.4;2.2;;;;;;;27.22;62.52832;934.2147;;;;
2023/08/26 10:08:49;;;;;;;2.7;2;;;;;;;27.38;60.76953;934.2153;;;;
2023/08/26 10:11:16;;;;;;;2.6;2.3;;;;;;;27.51;63.40918;934.2148;;;;
2023/08/26 10:13:42;;;;;;;5.2;3.3;;;;;;;27.64;61.24414;934.1613;;;;
2023/08/26 10:16:06;;;;;;;3.3;2.4;;;;;;;28.14;59.82813;934.1203;;;;
2023/08/26 10:18:31;;;;;;;6.9;4.5;;;;;;;28.89;55.19043;934.0839;;;;
2023/08/26 10:20:56;;;;;;;85.3;34.1;;;;;;;28.77;60.40039;934.0417;;;;
2023/08/26 10:23:26;;;;;;;4.8;2.7;;;;;;;28.28;59.75098;934.0287;;;;
2023/08/26 10:25:50;;;;;;;40;17.3;;;;;;;28.17;59.67676;933.9277;;;;
2023/08/26 10:28:19;;;;;;;3.9;3;;;;;;;27.57;63.56152;933.8753;;;;
2023/08/26 10:30:43;;;;;;;3.7;2.8;;;;;;;27.24;63.52637;933.856;;;;
2023/08/26 10:33:10;;;;;;;9.6;5.1;;;;;;;27.17;61.41797;933.7897;;;;
2023/08/26 10:35:35;;;;;;;3;2.7;;;;;;;27.09;61.71582;933.7372;;;;
2023/08/26 10:38:01;;;;;;;10.5;5.7;;;;;;;27.17;61.00293;933.7383;;;;
2023/08/26 10:40:30;;;;;;;3.7;2.9;;;;;;;27.66;61.12988;933.7058;;;;
2023/08/26 10:42:55;;;;;;;3.6;2.7;;;;;;;28.04;61.6084;933.6074;;;;
2023/08/26 10:45:22;;;;;;;6.5;3.2;;;;;;;28.42;58.39063;933.5274;;;;
2023/08/26 10:47:47;;;;;;;4.1;2.7;;;;;;;28.97;58.65332;933.5345;;;;
2023/08/26 10:50:18;;;;;;;3.7;2.7;;;;;;;29.51;55.23145;933.4536;;;;
2023/08/26 10:52:48;;;;;;;3.6;2.7;;;;;;;30.04;53.66113;933.3771;;;;
2023/08/26 10:55:13;;;;;;;2.6;2.4;;;;;;;29.97;54.61914;933.3716;;;;
2023/08/26 10:57:40;;;;;;;5.3;2.3;;;;;;;29.84;53.95898;933.3107;;;;
2023/08/26 11:00:09;;;;;;;3.9;2.9;;;;;;;29.67;51.86523;933.2374;;;;
2023/08/26 11:02:37;;;;;;;2.6;2.4;;;;;;;29.34;54.92285;933.1599;;;;
2023/08/26 11:05:02;;;;;;;3.1;2.6;;;;;;;30.47;52.0752;933.1398;;;;
2023/08/26 11:07:30;;;;;;;2.7;2.5;;;;;;;31.18;51.08105;933.1106;;;;
2023/08/26 11:09:55;;;;;;;3.5;2.7;;;;;;;32.03;47.91699;933.1411;;;;
2023/08/26 11:12:23;;;;;;;2.9;2.6;;;;;;;33.04;46.78516;933.1306;;;;
2023/08/26 11:14:48;;;;;;;3.1;2.9;;;;;;;33.9;42.24121;933.0453;;;;
2023/08/26 11:17:17;;;;;;;5.3;2.9;;;;;;;33.09;45.45801;933.0672;;;;
2023/08/26 11:19:42;;;;;;;3.6;2.7;;;;;;;31.96;51.12109;933.0328;;;;
2023/08/26 11:22:10;;;;;;;2.8;2.6;;;;;;;33.64;43.74316;933.0244;;;;
2023/08/26 11:24:35;;;;;;;3.2;2.8;;;;;;;34.82;42.45801;932.9641;;;;
2023/08/26 11:27:04;;;;;;;4.6;3.1;;;;;;;34.29;43.74707;932.9489;;;;
2023/08/26 11:29:29;;;;;;;3.2;2.9;;;;;;;32.56;49.16016;932.9111;;;;
2023/08/26 11:31:56;;;;;;;6.5;3.5;;;;;;;33.47;44.5332;932.8567;;;;
2023/08/26 11:34:22;;;;;;;4.9;3.3;;;;;;;33.76;46.58301;932.8002;;;;
2023/08/26 11:36:50;;;;;;;3.3;2.8;;;;;;;32.14;52.00293;932.7717;;;;
2023/08/26 11:39:18;;;;;;;4;2.7;;;;;;;32.8;50.12207;932.777;;;;
2023/08/26 11:41:42;;;;;;;2.9;2.6;;;;;;;31.14;52.59473;932.645;;;;
2023/08/26 11:44:10;;;;;;;4.5;2.9;;;;;;;30.99;53.67773;932.5878;;;;
2023/08/26 11:46:36;;;;;;;3.8;3;;;;;;;30.61;53.54883;932.5823;;;;
2023/08/26 11:49:01;;;;;;;4.2;3.4;;;;;;;29.7;59.61816;932.5319;;;;
2023/08/26 11:51:27;;;;;;;4;2.8;;;;;;;30.25;55.18945;932.5355;;;;
2023/08/26 11:53:52;;;;;;;5.9;3.4;;;;;;;29.87;58.35156;932.5978;;;;
2023/08/26 11:56:21;;;;;;;3.9;2.9;;;;;;;30.16;54.88086;932.5566;;;;
2023/08/26 11:58:46;;;;;;;4.6;3.5;;;;;;;29.8;54.52637;932.4803;;;;
2023/08/26 12:01:11;;;;;;;3.4;2.7;;;;;;;29.62;59.10547;932.4236;;;;
2023/08/26 12:03:39;;;;;;;5.7;3.3;;;;;;;29.44;61.60938;932.447;;;;
2023/08/26 12:06:05;;;;;;;7;3.3;;;;;;;29.72;60.77734;932.3892;;;;
2023/08/26 12:08:32;;;;;;;4.8;3.1;;;;;;;29.41;59.99609;932.283;;;;
2023/08/26 12:10:56;;;;;;;3.9;3.6;;;;;;;28.74;65.97656;932.1933;;;;
2023/08/26 12:13:24;;;;;;;5.1;3.6;;;;;;;27.64;65.82715;932.1649;;;;
2023/08/26 12:15:48;;;;;;;6.1;3.6;;;;;;;27.59;68.52539;932.1067;;;;
2023/08/26 12:18:15;;;;;;;3.9;3.5;;;;;;;27.56;69.61133;932.0865;;;;
2023/08/26 12:20:40;;;;;;;5.7;3.5;;;;;;;27.22;69.72559;932.0631;;;;
2023/08/26 12:23:06;;;;;;;4.8;3.2;;;;;;;27.76;66.38965;931.9517;;;;
2023/08/26 12:25:32;;;;;;;4.1;3.4;;;;;;;27.76;66.91211;931.8038;;;;
2023/08/26 12:27:58;;;;;;;5.7;3.8;;;;;;;27.82;68.20313;931.6852;;;;
2023/08/26 12:30:23;;;;;;;5.8;4.1;;;;;;;27.57;69.08008;931.7148;;;;
2023/08/26 12:32:50;;;;;;;3.9;3.6;;;;;;;27.37;72.27539;931.6858;;;;
2023/08/26 12:35:15;;;;;;;4.2;3.8;;;;;;;27.26;71.34473;931.6373;;;;
2023/08/26 12:37:45;;;;;;;4.6;3.7;;;;;;;27.36;70.39941;931.6577;;;;
2023/08/26 12:40:10;;;;;;;4.6;3.8;;;;;;;27.73;68.89063;931.6115;;;;
2023/08/26 12:42:38;;;;;;;4.2;3.8;;;;;;;27.98;65.80469;931.4724;;;;
2023/08/26 12:45:03;;;;;;;3.7;3.3;;;;;;;28.27;65.08691;931.4363;;;;
2023/08/26 12:47:30;;;;;;;6.6;3.8;;;;;;;28.5;63.6582;931.4391;;;;
2023/08/26 12:49:55;;;;;;;4.3;3.9;;;;;;;28.21;65.00781;931.4017;;;;
2023/08/26 12:52:23;;;;;;;4;3.6;;;;;;;28.19;65.49219;931.4116;;;;
2023/08/26 12:54:48;;;;;;;4.1;3.7;;;;;;;27.71;68.75684;931.3766;;;;
2023/08/26 12:57:14;;;;;;;4.1;3.4;;;;;;;27.51;68.84473;931.3861;;;;
2023/08/26 12:59:39;;;;;;;5.2;3.7;;;;;;;27.82;68.6084;931.3198;;;;
2023/08/26 13:02:04;;;;;;;4;3.6;;;;;;;27.26;70.63281;931.2335;;;;
2023/08/26 13:04:29;;;;;;;4.5;3.7;;;;;;;26.73;72.20898;931.0244;;;;
2023/08/26 13:07:00;;;;;;;5.3;4.2;;;;;;;26.43;74.5625;930.9933;;;;
2023/08/26 13:09:23;;;;;;;4.6;4;;;;;;;26.77;72.56836;930.941;;;;
2023/08/26 13:11:49;;;;;;;5.2;4;;;;;;;27.24;67.84277;930.9885;;;;
2023/08/26 13:14:14;;;;;;;4.1;3.7;;;;;;;27.44;68.00488;930.9378;;;;
2023/08/26 13:16:43;;;;;;;4.4;3.7;;;;;;;27.41;68.15332;931.0567;;;;
2023/08/26 13:19:09;;;;;;;4.2;3.7;;;;;;;27.78;66.99902;931.053;;;;
2023/08/26 13:21:37;;;;;;;4.4;4;;;;;;;27.91;64.99902;931.0569;;;;
2023/08/26 13:24:01;;;;;;;3.9;3.5;;;;;;;28;64.59766;931.1121;;;;
2023/08/26 13:26:26;;;;;;;4.1;3.6;;;;;;;28.06;65.53223;931.1392;;;;
2023/08/26 13:28:55;;;;;;;4.2;3.8;;;;;;;27.71;66.05176;930.9;;;;
2023/08/26 13:31:20;;;;;;;4.9;3.9;;;;;;;27.77;65.37109;930.7859;;;;
2023/08/26 13:33:46;;;;;;;5.4;3.9;;;;;;;27.87;64.625;930.7195;;;;
2023/08/26 13:36:12;;;;;;;5.9;3.9;;;;;;;27.89;66.14844;930.7313;;;;
2023/08/26 13:38:38;;;;;;;6.7;4.3;;;;;;;27.59;66.69922;930.7073;;;;
2023/08/26 13:41:03;;;;;;;4.6;4;;;;;;;27.71;65.89551;930.8176;;;;
2023/08/26 13:43:31;;;;;;;6.5;4;;;;;;;27.74;65.58105;930.8989;;;;
2023/08/26 13:45:56;;;;;;;4;3.6;;;;;;;27.64;66.62305;930.9059;;;;
2023/08/26 13:48:21;;;;;;;4.8;4.1;;;;;;;27.31;68.29297;930.8774;;;;
2023/08/26 13:50:47;;;;;;;4.7;4;;;;;;;27.6;66.99609;930.7953;;;;
2023/08/26 13:53:11;;;;;;;4.2;3.8;;;;;;;27.65;65.6377;930.8909;;;;
2023/08/26 13:55:38;;;;;;;5.1;3.9;;;;;;;27.72;64.22363;931.0797;;;;
2023/08/26 13:58:02;;;;;;;4.7;3.8;;;;;;;28;63.91992;931.171;;;;
2023/08/26 14:00:28;;;;;;;4.6;3.8;;;;;;;28.17;64.06348;931.3655;;;;
2023/08/26 14:02:56;;;;;;;4.5;3.6;;;;;;;28.22;64.11621;931.5297;;;;
2023/08/26 14:05:28;;;;;;;4.7;4.2;;;;;;;27.75;66.44727;931.7292;;;;
2023/08/26 14:07:49;;;;;;;5.2;4;;;;;;;27.69;64.96777;932.0008;;;;
2023/08/26 14:10:19;;;;;;;4.7;4.1;;;;;;;27.23;68.57813;932.0258;;;;
2023/08/26 14:12:44;;;;;;;5.1;4.3;;;;;;;27.07;68.4707;932.0374;;;;
2023/08/26 14:15:15;;;;;;;4.6;3.9;;;;;;;26.94;70.06152;931.988;;;;
2023/08/26 14:17:45;;;;;;;5.1;4.4;;;;;;;26.1;71.59863;931.9625;;;;
2023/08/26 14:20:17;;;;;;;4.2;3.2;;;;;;;25.7;72.1377;932.0117;;;;
2023/08/26 14:22:45;;;;;;;3.6;2.8;;;;;;;25.82;69.40234;931.8505;;;;
2023/08/26 14:25:11;;;;;;;3.9;3.1;;;;;;;25.91;69.79492;931.8136;;;;
2023/08/26 14:27:40;;;;;;;4;3.6;;;;;;;25.93;69.46582;931.6606;;;;
2023/08/26 14:30:05;;;;;;;3.1;2.8;;;;;;;25.9;68.5752;931.3717;;;;
2023/08/26 14:32:34;;;;;;;1.9;1.7;;;;;;;25.2;65.88379;931.1953;;;;